sensor_id;sensor_type;location;lat;lon;timestamp;P1;durP1;ratioP1;P2;durP2;ratioP2
33740;SDS011;20065;48.380;10.892;2023-05-02T00:01:56;7.60;;;4.80;;
33740;SDS011;20065;48.380;10.892;2023-05-02T00:04:46;8.17;;;5.53;;
33740;SDS011;20065;48.380;10.892;2023-05-02T00:07:33;7.33;;;4.80;;
33740;SDS011;20065;48.380;10.892;2023-05-02T00:10:20;6.40;;;4.80;;
33740;SDS011;20065;48.380;10.892;2023-05-02T00:13:06;6.33;;;4.63;;
33740;SDS011;20065;48.380;10.892;2023-05-02T00:15:52;6.37;;;4.00;;
33740;SDS011;20065;48.380;10.892;2023-05-02T00:18:38;8.03;;;4.90;;
33740;SDS011;20065;48.380;10.892;2023-05-02T00:21:24;7.43;;;5.33;;
33740;SDS011;20065;48.380;10.892;2023-05-02T00:24:14;6.27;;;4.30;;
33740;SDS011;20065;48.380;10.892;2023-05-02T00:27:01;7.05;;;4.22;;
33740;SDS011;20065;48.380;10.892;2023-05-02T00:29:48;5.75;;;3.47;;
33740;SDS011;20065;48.380;10.892;2023-05-02T00:32:36;6.80;;;4.40;;
33740;SDS011;20065;48.380;10.892;2023-05-02T00:35:23;6.50;;;4.00;;
33740;SDS011;20065;48.380;10.892;2023-05-02T00:38:09;6.43;;;4.00;;
33740;SDS011;20065;48.380;10.892;2023-05-02T00:40:56;6.47;;;4.07;;
33740;SDS011;20065;48.380;10.892;2023-05-02T00:43:42;6.03;;;3.72;;
33740;SDS011;20065;48.380;10.892;2023-05-02T00:46:28;5.93;;;3.80;;
33740;SDS011;20065;48.380;10.892;2023-05-02T00:49:15;6.67;;;4.20;;
33740;SDS011;20065;48.380;10.892;2023-05-02T00:52:01;5.80;;;3.83;;
33740;SDS011;20065;48.380;10.892;2023-05-02T00:54:47;5.83;;;4.03;;
33740;SDS011;20065;48.380;10.892;2023-05-02T00:57:34;9.50;;;4.30;;
33740;SDS011;20065;48.380;10.892;2023-05-02T01:00:20;6.60;;;3.83;;
33740;SDS011;20065;48.380;10.892;2023-05-02T01:03:16;6.23;;;3.80;;
33740;SDS011;20065;48.380;10.892;2023-05-02T01:15:55;5.70;;;4.10;;
33740;SDS011;20065;48.380;10.892;2023-05-02T01:18:42;4.80;;;3.40;;
33740;SDS011;20065;48.380;10.892;2023-05-02T01:21:29;6.50;;;3.80;;
33740;SDS011;20065;48.380;10.892;2023-05-02T01:24:29;6.23;;;4.00;;
33740;SDS011;20065;48.380;10.892;2023-05-02T01:27:23;5.68;;;3.67;;
33740;SDS011;20065;48.380;10.892;2023-05-02T01:30:19;5.40;;;3.93;;
33740;SDS011;20065;48.380;10.892;2023-05-02T01:33:07;6.17;;;3.83;;
33740;SDS011;20065;48.380;10.892;2023-05-02T01:35:56;5.30;;;3.30;;
33740;SDS011;20065;48.380;10.892;2023-05-02T01:38:44;6.13;;;3.53;;
33740;SDS011;20065;48.380;10.892;2023-05-02T01:41:30;5.53;;;3.77;;
33740;SDS011;20065;48.380;10.892;2023-05-02T01:44:19;5.63;;;3.37;;
33740;SDS011;20065;48.380;10.892;2023-05-02T01:47:07;6.10;;;3.90;;
33740;SDS011;20065;48.380;10.892;2023-05-02T01:49:54;6.20;;;4.10;;
33740;SDS011;20065;48.380;10.892;2023-05-02T01:52:43;5.87;;;4.10;;
33740;SDS011;20065;48.380;10.892;2023-05-02T01:55:33;6.47;;;3.97;;
33740;SDS011;20065;48.380;10.892;2023-05-02T01:58:22;5.93;;;3.75;;
33740;SDS011;20065;48.380;10.892;2023-05-02T02:01:09;6.93;;;3.63;;
33740;SDS011;20065;48.380;10.892;2023-05-02T02:03:57;5.80;;;4.28;;
33740;SDS011;20065;48.380;10.892;2023-05-02T02:06:45;6.10;;;3.70;;
33740;SDS011;20065;48.380;10.892;2023-05-02T02:09:36;4.97;;;4.15;;
33740;SDS011;20065;48.380;10.892;2023-05-02T02:12:27;6.80;;;4.57;;
33740;SDS011;20065;48.380;10.892;2023-05-02T02:15:26;5.95;;;4.05;;
33740;SDS011;20065;48.380;10.892;2023-05-02T02:18:16;7.87;;;4.10;;
33740;SDS011;20065;48.380;10.892;2023-05-02T02:21:06;7.18;;;4.07;;
33740;SDS011;20065;48.380;10.892;2023-05-02T02:23:55;6.90;;;3.80;;
33740;SDS011;20065;48.380;10.892;2023-05-02T02:26:44;6.00;;;4.50;;
33740;SDS011;20065;48.380;10.892;2023-05-02T02:29:32;5.40;;;3.53;;
33740;SDS011;20065;48.380;10.892;2023-05-02T02:32:18;7.30;;;4.35;;
33740;SDS011;20065;48.380;10.892;2023-05-02T02:35:04;5.32;;;4.00;;
33740;SDS011;20065;48.380;10.892;2023-05-02T02:38:00;5.33;;;3.60;;
33740;SDS011;20065;48.380;10.892;2023-05-02T02:40:55;5.50;;;3.90;;
33740;SDS011;20065;48.380;10.892;2023-05-02T02:49:59;5.00;;;3.40;;
33740;SDS011;20065;48.380;10.892;2023-05-02T02:53:14;6.00;;;4.15;;
33740;SDS011;20065;48.380;10.892;2023-05-02T02:56:16;6.47;;;4.67;;
33740;SDS011;20065;48.380;10.892;2023-05-02T03:02:07;5.47;;;3.90;;
33740;SDS011;20065;48.380;10.892;2023-05-02T03:04:56;6.53;;;4.47;;
33740;SDS011;20065;48.380;10.892;2023-05-02T03:07:44;6.70;;;4.90;;
33740;SDS011;20065;48.380;10.892;2023-05-02T03:10:30;7.15;;;4.43;;
33740;SDS011;20065;48.380;10.892;2023-05-02T03:13:18;8.70;;;5.05;;
33740;SDS011;20065;48.380;10.892;2023-05-02T03:19:13;5.87;;;4.43;;
33740;SDS011;20065;48.380;10.892;2023-05-02T03:21:59;6.70;;;4.93;;
33740;SDS011;20065;48.380;10.892;2023-05-02T03:24:45;6.97;;;4.70;;
33740;SDS011;20065;48.380;10.892;2023-05-02T03:27:32;7.18;;;4.53;;
33740;SDS011;20065;48.380;10.892;2023-05-02T03:30:21;10.10;;;5.22;;
33740;SDS011;20065;48.380;10.892;2023-05-02T03:33:07;7.70;;;5.63;;
33740;SDS011;20065;48.380;10.892;2023-05-02T03:35:54;8.20;;;5.70;;
33740;SDS011;20065;48.380;10.892;2023-05-02T03:42:17;7.50;;;5.03;;
33740;SDS011;20065;48.380;10.892;2023-05-02T03:45:03;6.47;;;4.83;;
33740;SDS011;20065;48.380;10.892;2023-05-02T03:47:50;7.67;;;5.57;;
33740;SDS011;20065;48.380;10.892;2023-05-02T03:50:36;7.35;;;5.70;;
33740;SDS011;20065;48.380;10.892;2023-05-02T03:53:23;7.45;;;6.07;;
33740;SDS011;20065;48.380;10.892;2023-05-02T03:56:18;9.23;;;6.32;;
33740;SDS011;20065;48.380;10.892;2023-05-02T03:59:10;7.75;;;5.82;;
33740;SDS011;20065;48.380;10.892;2023-05-02T04:01:56;8.15;;;6.30;;
33740;SDS011;20065;48.380;10.892;2023-05-02T04:04:52;7.75;;;6.05;;
33740;SDS011;20065;48.380;10.892;2023-05-02T04:07:41;9.70;;;6.20;;
33740;SDS011;20065;48.380;10.892;2023-05-02T04:10:27;8.98;;;7.18;;
33740;SDS011;20065;48.380;10.892;2023-05-02T04:13:17;8.80;;;6.60;;
33740;SDS011;20065;48.380;10.892;2023-05-02T04:16:06;9.88;;;7.15;;
33740;SDS011;20065;48.380;10.892;2023-05-02T04:18:54;9.38;;;7.40;;
33740;SDS011;20065;48.380;10.892;2023-05-02T04:21:41;9.45;;;7.20;;
33740;SDS011;20065;48.380;10.892;2023-05-02T04:24:27;14.15;;;7.47;;
33740;SDS011;20065;48.380;10.892;2023-05-02T04:27:14;8.98;;;7.20;;
33740;SDS011;20065;48.380;10.892;2023-05-02T04:30:00;12.30;;;6.90;;
33740;SDS011;20065;48.380;10.892;2023-05-02T04:32:46;10.60;;;7.70;;
33740;SDS011;20065;48.380;10.892;2023-05-02T04:35:33;11.60;;;8.38;;
33740;SDS011;20065;48.380;10.892;2023-05-02T04:38:23;11.35;;;8.15;;
33740;SDS011;20065;48.380;10.892;2023-05-02T04:41:09;8.98;;;7.15;;
33740;SDS011;20065;48.380;10.892;2023-05-02T04:44:02;9.30;;;7.40;;
33740;SDS011;20065;48.380;10.892;2023-05-02T04:46:48;11.85;;;7.93;;
33740;SDS011;20065;48.380;10.892;2023-05-02T04:49:35;7.80;;;6.18;;
33740;SDS011;20065;48.380;10.892;2023-05-02T04:52:21;11.00;;;7.78;;
33740;SDS011;20065;48.380;10.892;2023-05-02T04:55:07;8.75;;;6.75;;
33740;SDS011;20065;48.380;10.892;2023-05-02T04:57:56;9.75;;;7.47;;
33740;SDS011;20065;48.380;10.892;2023-05-02T05:00:43;11.70;;;8.48;;
33740;SDS011;20065;48.380;10.892;2023-05-02T05:03:29;9.45;;;6.45;;
33740;SDS011;20065;48.380;10.892;2023-05-02T05:06:17;11.17;;;8.20;;
33740;SDS011;20065;48.380;10.892;2023-05-02T05:09:04;10.48;;;7.53;;
33740;SDS011;20065;48.380;10.892;2023-05-02T05:11:53;10.60;;;8.45;;
33740;SDS011;20065;48.380;10.892;2023-05-02T05:14:39;10.10;;;7.45;;
33740;SDS011;20065;48.380;10.892;2023-05-02T05:17:26;10.95;;;8.07;;
33740;SDS011;20065;48.380;10.892;2023-05-02T05:20:13;9.27;;;7.60;;
33740;SDS011;20065;48.380;10.892;2023-05-02T05:23:00;9.98;;;7.50;;
33740;SDS011;20065;48.380;10.892;2023-05-02T05:25:46;9.82;;;7.90;;
33740;SDS011;20065;48.380;10.892;2023-05-02T05:28:35;11.90;;;8.75;;
33740;SDS011;20065;48.380;10.892;2023-05-02T05:31:22;11.40;;;7.85;;
33740;SDS011;20065;48.380;10.892;2023-05-02T05:34:12;9.90;;;7.60;;
33740;SDS011;20065;48.380;10.892;2023-05-02T05:36:59;10.55;;;8.02;;
33740;SDS011;20065;48.380;10.892;2023-05-02T05:39:46;11.05;;;8.45;;
33740;SDS011;20065;48.380;10.892;2023-05-02T05:42:33;10.25;;;7.65;;
33740;SDS011;20065;48.380;10.892;2023-05-02T05:45:23;14.73;;;8.70;;
33740;SDS011;20065;48.380;10.892;2023-05-02T05:48:09;10.85;;;8.25;;
33740;SDS011;20065;48.380;10.892;2023-05-02T05:51:05;14.02;;;9.40;;
33740;SDS011;20065;48.380;10.892;2023-05-02T05:53:52;15.60;;;11.20;;
33740;SDS011;20065;48.380;10.892;2023-05-02T05:56:38;15.40;;;10.40;;
33740;SDS011;20065;48.380;10.892;2023-05-02T05:59:30;11.73;;;8.95;;
33740;SDS011;20065;48.380;10.892;2023-05-02T06:02:19;12.10;;;8.60;;
33740;SDS011;20065;48.380;10.892;2023-05-02T06:05:06;11.25;;;8.07;;
33740;SDS011;20065;48.380;10.892;2023-05-02T06:07:52;13.70;;;9.17;;
33740;SDS011;20065;48.380;10.892;2023-05-02T06:10:38;16.65;;;10.15;;
33740;SDS011;20065;48.380;10.892;2023-05-02T06:13:24;12.80;;;9.75;;
33740;SDS011;20065;48.380;10.892;2023-05-02T06:16:11;14.55;;;10.02;;
33740;SDS011;20065;48.380;10.892;2023-05-02T06:18:57;13.70;;;9.40;;
33740;SDS011;20065;48.380;10.892;2023-05-02T06:21:43;11.97;;;9.00;;
33740;SDS011;20065;48.380;10.892;2023-05-02T06:24:29;14.35;;;10.40;;
33740;SDS011;20065;48.380;10.892;2023-05-02T06:27:15;12.13;;;8.20;;
33740;SDS011;20065;48.380;10.892;2023-05-02T06:30:01;11.43;;;9.17;;
33740;SDS011;20065;48.380;10.892;2023-05-02T06:32:48;10.07;;;8.50;;
33740;SDS011;20065;48.380;10.892;2023-05-02T06:35:40;11.13;;;8.70;;
33740;SDS011;20065;48.380;10.892;2023-05-02T06:38:26;10.70;;;8.17;;
33740;SDS011;20065;48.380;10.892;2023-05-02T06:41:12;12.00;;;9.77;;
33740;SDS011;20065;48.380;10.892;2023-05-02T06:43:59;12.27;;;9.13;;
33740;SDS011;20065;48.380;10.892;2023-05-02T06:46:45;13.57;;;8.60;;
33740;SDS011;20065;48.380;10.892;2023-05-02T06:49:32;11.88;;;9.27;;
33740;SDS011;20065;48.380;10.892;2023-05-02T06:52:18;11.00;;;9.40;;
33740;SDS011;20065;48.380;10.892;2023-05-02T06:55:04;12.90;;;9.17;;
33740;SDS011;20065;48.380;10.892;2023-05-02T06:57:51;20.90;;;9.48;;
33740;SDS011;20065;48.380;10.892;2023-05-02T07:00:37;12.40;;;10.00;;
33740;SDS011;20065;48.380;10.892;2023-05-02T07:03:23;11.53;;;8.77;;
33740;SDS011;20065;48.380;10.892;2023-05-02T07:06:09;14.73;;;10.67;;
33740;SDS011;20065;48.380;10.892;2023-05-02T07:08:56;13.20;;;8.40;;
33740;SDS011;20065;48.380;10.892;2023-05-02T07:11:42;14.33;;;10.17;;
33740;SDS011;20065;48.380;10.892;2023-05-02T07:14:28;14.03;;;10.27;;
33740;SDS011;20065;48.380;10.892;2023-05-02T07:17:15;13.93;;;9.90;;
33740;SDS011;20065;48.380;10.892;2023-05-02T07:20:09;13.33;;;10.13;;
33740;SDS011;20065;48.380;10.892;2023-05-02T07:22:56;13.50;;;10.30;;
33740;SDS011;20065;48.380;10.892;2023-05-02T07:25:47;16.17;;;11.43;;
33740;SDS011;20065;48.380;10.892;2023-05-02T07:28:35;15.20;;;10.43;;
33740;SDS011;20065;48.380;10.892;2023-05-02T07:31:21;14.27;;;11.33;;
33740;SDS011;20065;48.380;10.892;2023-05-02T07:34:07;13.40;;;11.17;;
33740;SDS011;20065;48.380;10.892;2023-05-02T07:36:53;17.20;;;11.77;;
33740;SDS011;20065;48.380;10.892;2023-05-02T07:39:40;13.97;;;10.30;;
33740;SDS011;20065;48.380;10.892;2023-05-02T07:42:29;15.03;;;11.80;;
33740;SDS011;20065;48.380;10.892;2023-05-02T07:45:16;13.73;;;10.70;;
33740;SDS011;20065;48.380;10.892;2023-05-02T07:48:02;14.93;;;11.77;;
33740;SDS011;20065;48.380;10.892;2023-05-02T07:50:48;14.87;;;12.30;;
33740;SDS011;20065;48.380;10.892;2023-05-02T07:53:35;13.60;;;10.40;;
33740;SDS011;20065;48.380;10.892;2023-05-02T07:56:21;16.30;;;11.90;;
33740;SDS011;20065;48.380;10.892;2023-05-02T07:59:07;17.90;;;11.70;;
33740;SDS011;20065;48.380;10.892;2023-05-02T08:01:54;14.60;;;11.93;;
33740;SDS011;20065;48.380;10.892;2023-05-02T08:04:40;15.43;;;11.10;;
33740;SDS011;20065;48.380;10.892;2023-05-02T08:07:32;14.13;;;11.30;;
33740;SDS011;20065;48.380;10.892;2023-05-02T08:10:26;14.53;;;11.27;;
33740;SDS011;20065;48.380;10.892;2023-05-02T08:13:12;13.30;;;10.77;;
33740;SDS011;20065;48.380;10.892;2023-05-02T08:15:58;13.30;;;10.87;;
33740;SDS011;20065;48.380;10.892;2023-05-02T08:18:44;14.40;;;11.17;;
33740;SDS011;20065;48.380;10.892;2023-05-02T08:21:31;13.70;;;9.80;;
33740;SDS011;20065;48.380;10.892;2023-05-02T08:24:20;15.53;;;10.87;;
33740;SDS011;20065;48.380;10.892;2023-05-02T08:27:07;13.70;;;10.80;;
33740;SDS011;20065;48.380;10.892;2023-05-02T08:29:53;15.43;;;11.50;;
33740;SDS011;20065;48.380;10.892;2023-05-02T08:32:39;13.60;;;10.93;;
33740;SDS011;20065;48.380;10.892;2023-05-02T08:35:27;13.73;;;10.20;;
33740;SDS011;20065;48.380;10.892;2023-05-02T08:38:14;14.23;;;10.43;;
33740;SDS011;20065;48.380;10.892;2023-05-02T08:41:00;24.97;;;10.93;;
33740;SDS011;20065;48.380;10.892;2023-05-02T08:43:47;11.63;;;9.80;;
33740;SDS011;20065;48.380;10.892;2023-05-02T08:46:36;12.00;;;10.67;;
33740;SDS011;20065;48.380;10.892;2023-05-02T08:49:26;11.83;;;10.10;;
33740;SDS011;20065;48.380;10.892;2023-05-02T08:52:15;11.97;;;9.30;;
33740;SDS011;20065;48.380;10.892;2023-05-02T08:55:07;12.73;;;9.83;;
33740;SDS011;20065;48.380;10.892;2023-05-02T08:57:54;12.30;;;9.93;;
33740;SDS011;20065;48.380;10.892;2023-05-02T09:00:42;12.20;;;9.63;;
33740;SDS011;20065;48.380;10.892;2023-05-02T09:03:32;10.80;;;9.17;;
33740;SDS011;20065;48.380;10.892;2023-05-02T09:06:20;15.03;;;10.37;;
33740;SDS011;20065;48.380;10.892;2023-05-02T09:09:07;16.47;;;10.90;;
33740;SDS011;20065;48.380;10.892;2023-05-02T09:11:53;13.37;;;10.27;;
33740;SDS011;20065;48.380;10.892;2023-05-02T09:14:39;14.03;;;10.37;;
33740;SDS011;20065;48.380;10.892;2023-05-02T09:17:37;14.53;;;11.10;;
33740;SDS011;20065;48.380;10.892;2023-05-02T09:20:27;12.63;;;11.13;;
33740;SDS011;20065;48.380;10.892;2023-05-02T09:23:13;14.23;;;12.13;;
33740;SDS011;20065;48.380;10.892;2023-05-02T09:25:59;14.73;;;10.77;;
33740;SDS011;20065;48.380;10.892;2023-05-02T09:28:47;13.57;;;10.50;;
33740;SDS011;20065;48.380;10.892;2023-05-02T09:31:34;15.63;;;10.47;;
33740;SDS011;20065;48.380;10.892;2023-05-02T09:34:26;13.17;;;10.80;;
33740;SDS011;20065;48.380;10.892;2023-05-02T09:37:13;14.10;;;10.80;;
33740;SDS011;20065;48.380;10.892;2023-05-02T09:40:18;12.87;;;10.63;;
33740;SDS011;20065;48.380;10.892;2023-05-02T09:43:14;12.27;;;10.30;;
33740;SDS011;20065;48.380;10.892;2023-05-02T09:48:55;12.33;;;10.70;;
33740;SDS011;20065;48.380;10.892;2023-05-02T09:51:42;16.37;;;10.17;;
33740;SDS011;20065;48.380;10.892;2023-05-02T09:54:35;12.70;;;10.90;;
33740;SDS011;20065;48.380;10.892;2023-05-02T09:57:29;13.97;;;10.60;;
33740;SDS011;20065;48.380;10.892;2023-05-02T10:00:43;13.93;;;10.47;;
33740;SDS011;20065;48.380;10.892;2023-05-02T10:03:30;16.80;;;10.87;;
33740;SDS011;20065;48.380;10.892;2023-05-02T10:06:18;14.20;;;11.40;;
33740;SDS011;20065;48.380;10.892;2023-05-02T10:09:05;14.97;;;11.40;;
33740;SDS011;20065;48.380;10.892;2023-05-02T10:11:54;14.80;;;10.27;;
33740;SDS011;20065;48.380;10.892;2023-05-02T10:14:42;14.23;;;10.20;;
33740;SDS011;20065;48.380;10.892;2023-05-02T10:17:38;13.33;;;11.30;;
33740;SDS011;20065;48.380;10.892;2023-05-02T10:20:33;13.10;;;11.27;;
33740;SDS011;20065;48.380;10.892;2023-05-02T10:23:24;13.60;;;10.90;;
33740;SDS011;20065;48.380;10.892;2023-05-02T10:26:13;13.47;;;11.17;;
33740;SDS011;20065;48.380;10.892;2023-05-02T10:29:01;15.73;;;11.70;;
33740;SDS011;20065;48.380;10.892;2023-05-02T10:31:47;13.20;;;10.20;;
33740;SDS011;20065;48.380;10.892;2023-05-02T10:34:34;12.27;;;10.97;;
33740;SDS011;20065;48.380;10.892;2023-05-02T10:37:21;13.60;;;12.10;;
33740;SDS011;20065;48.380;10.892;2023-05-02T10:40:10;13.10;;;10.83;;
33740;SDS011;20065;48.380;10.892;2023-05-02T10:42:58;14.00;;;11.43;;
33740;SDS011;20065;48.380;10.892;2023-05-02T10:45:44;14.90;;;11.23;;
33740;SDS011;20065;48.380;10.892;2023-05-02T10:48:30;13.57;;;10.67;;
33740;SDS011;20065;48.380;10.892;2023-05-02T10:51:25;12.77;;;10.40;;
33740;SDS011;20065;48.380;10.892;2023-05-02T10:57:04;13.40;;;10.97;;
33740;SDS011;20065;48.380;10.892;2023-05-02T10:59:51;16.77;;;11.00;;
33740;SDS011;20065;48.380;10.892;2023-05-02T11:05:24;10.23;;;8.80;;
33740;SDS011;20065;48.380;10.892;2023-05-02T11:17:23;12.53;;;9.87;;
33740;SDS011;20065;48.380;10.892;2023-05-02T11:23:18;11.47;;;9.40;;
33740;SDS011;20065;48.380;10.892;2023-05-02T11:26:21;11.20;;;9.37;;
33740;SDS011;20065;48.380;10.892;2023-05-02T11:29:07;10.97;;;8.90;;
33740;SDS011;20065;48.380;10.892;2023-05-02T11:31:54;12.70;;;9.00;;
33740;SDS011;20065;48.380;10.892;2023-05-02T11:34:40;98.10;;;14.67;;
33740;SDS011;20065;48.380;10.892;2023-05-02T11:37:27;11.47;;;9.20;;
33740;SDS011;20065;48.380;10.892;2023-05-02T11:40:13;8.93;;;7.07;;
33740;SDS011;20065;48.380;10.892;2023-05-02T11:43:00;10.10;;;8.37;;
33740;SDS011;20065;48.380;10.892;2023-05-02T11:45:56;9.27;;;7.27;;
33740;SDS011;20065;48.380;10.892;2023-05-02T11:48:44;7.97;;;6.43;;
33740;SDS011;20065;48.380;10.892;2023-05-02T11:51:30;7.73;;;6.40;;
33740;SDS011;20065;48.380;10.892;2023-05-02T11:54:17;9.60;;;6.83;;
33740;SDS011;20065;48.380;10.892;2023-05-02T11:57:05;7.83;;;6.90;;
33740;SDS011;20065;48.380;10.892;2023-05-02T11:59:51;8.07;;;6.27;;
33740;SDS011;20065;48.380;10.892;2023-05-02T12:02:40;10.80;;;6.50;;
33740;SDS011;20065;48.380;10.892;2023-05-02T12:05:28;8.10;;;7.00;;
33740;SDS011;20065;48.380;10.892;2023-05-02T12:08:18;8.60;;;5.43;;
33740;SDS011;20065;48.380;10.892;2023-05-02T12:11:08;9.33;;;6.57;;
33740;SDS011;20065;48.380;10.892;2023-05-02T12:13:57;9.57;;;6.67;;
33740;SDS011;20065;48.380;10.892;2023-05-02T12:16:43;8.33;;;6.37;;
33740;SDS011;20065;48.380;10.892;2023-05-02T12:19:29;9.27;;;6.63;;
33740;SDS011;20065;48.380;10.892;2023-05-02T12:22:15;8.37;;;6.10;;
33740;SDS011;20065;48.380;10.892;2023-05-02T12:25:03;8.83;;;7.03;;
33740;SDS011;20065;48.380;10.892;2023-05-02T12:28:00;8.10;;;6.40;;
33740;SDS011;20065;48.380;10.892;2023-05-02T12:30:47;10.27;;;6.10;;
33740;SDS011;20065;48.380;10.892;2023-05-02T12:33:44;7.90;;;6.40;;
33740;SDS011;20065;48.380;10.892;2023-05-02T12:36:36;10.13;;;5.80;;
33740;SDS011;20065;48.380;10.892;2023-05-02T12:39:36;7.70;;;5.67;;
33740;SDS011;20065;48.380;10.892;2023-05-02T12:42:28;10.27;;;5.63;;
33740;SDS011;20065;48.380;10.892;2023-05-02T12:45:16;8.43;;;5.53;;
33740;SDS011;20065;48.380;10.892;2023-05-02T12:51:21;6.40;;;4.83;;
33740;SDS011;20065;48.380;10.892;2023-05-02T12:54:18;6.00;;;5.13;;
33740;SDS011;20065;48.380;10.892;2023-05-02T12:57:05;5.57;;;4.50;;
33740;SDS011;20065;48.380;10.892;2023-05-02T12:59:52;6.70;;;4.60;;
33740;SDS011;20065;48.380;10.892;2023-05-02T13:02:38;6.70;;;4.43;;
33740;SDS011;20065;48.380;10.892;2023-05-02T13:05:24;9.03;;;4.93;;
33740;SDS011;20065;48.380;10.892;2023-05-02T13:08:11;7.63;;;4.80;;
33740;SDS011;20065;48.380;10.892;2023-05-02T13:10:57;6.83;;;4.90;;
33740;SDS011;20065;48.380;10.892;2023-05-02T13:13:43;8.23;;;4.37;;
33740;SDS011;20065;48.380;10.892;2023-05-02T13:16:29;9.37;;;4.10;;
33740;SDS011;20065;48.380;10.892;2023-05-02T13:19:18;7.80;;;4.70;;
33740;SDS011;20065;48.380;10.892;2023-05-02T13:22:04;6.53;;;4.43;;
33740;SDS011;20065;48.380;10.892;2023-05-02T13:24:51;6.07;;;4.37;;
33740;SDS011;20065;48.380;10.892;2023-05-02T13:27:37;12.13;;;5.60;;
33740;SDS011;20065;48.380;10.892;2023-05-02T13:30:24;6.20;;;4.90;;
33740;SDS011;20065;48.380;10.892;2023-05-02T13:33:10;10.50;;;5.00;;
33740;SDS011;20065;48.380;10.892;2023-05-02T13:35:56;7.07;;;4.67;;
33740;SDS011;20065;48.380;10.892;2023-05-02T13:38:42;7.87;;;4.77;;
33740;SDS011;20065;48.380;10.892;2023-05-02T13:41:29;8.50;;;4.80;;
33740;SDS011;20065;48.380;10.892;2023-05-02T13:44:15;7.13;;;4.50;;
33740;SDS011;20065;48.380;10.892;2023-05-02T13:47:01;10.00;;;4.30;;
33740;SDS011;20065;48.380;10.892;2023-05-02T13:49:47;6.43;;;4.03;;
33740;SDS011;20065;48.380;10.892;2023-05-02T13:52:33;7.73;;;3.70;;
33740;SDS011;20065;48.380;10.892;2023-05-02T13:55:19;6.00;;;3.67;;
33740;SDS011;20065;48.380;10.892;2023-05-02T13:58:06;6.93;;;3.80;;
33740;SDS011;20065;48.380;10.892;2023-05-02T14:00:52;6.27;;;4.30;;
33740;SDS011;20065;48.380;10.892;2023-05-02T14:03:38;6.90;;;5.10;;
33740;SDS011;20065;48.380;10.892;2023-05-02T14:06:25;5.30;;;4.40;;
33740;SDS011;20065;48.380;10.892;2023-05-02T14:09:11;5.80;;;4.00;;
33740;SDS011;20065;48.380;10.892;2023-05-02T14:11:57;5.63;;;4.30;;
33740;SDS011;20065;48.380;10.892;2023-05-02T14:14:43;6.10;;;4.10;;
33740;SDS011;20065;48.380;10.892;2023-05-02T14:17:29;5.60;;;3.90;;
33740;SDS011;20065;48.380;10.892;2023-05-02T14:20:20;6.80;;;4.40;;
33740;SDS011;20065;48.380;10.892;2023-05-02T14:23:08;5.80;;;3.97;;
33740;SDS011;20065;48.380;10.892;2023-05-02T14:25:54;5.07;;;3.87;;
33740;SDS011;20065;48.380;10.892;2023-05-02T14:28:40;5.90;;;4.30;;
33740;SDS011;20065;48.380;10.892;2023-05-02T14:31:26;5.73;;;4.00;;
33740;SDS011;20065;48.380;10.892;2023-05-02T14:34:13;8.00;;;4.40;;
33740;SDS011;20065;48.380;10.892;2023-05-02T14:36:59;5.90;;;4.00;;
33740;SDS011;20065;48.380;10.892;2023-05-02T14:39:46;6.40;;;3.63;;
33740;SDS011;20065;48.380;10.892;2023-05-02T14:42:34;6.90;;;3.73;;
33740;SDS011;20065;48.380;10.892;2023-05-02T14:45:20;5.43;;;3.43;;
33740;SDS011;20065;48.380;10.892;2023-05-02T14:48:09;7.07;;;4.43;;
33740;SDS011;20065;48.380;10.892;2023-05-02T14:50:58;8.43;;;4.60;;
33740;SDS011;20065;48.380;10.892;2023-05-02T14:53:48;6.17;;;4.53;;
33740;SDS011;20065;48.380;10.892;2023-05-02T14:56:34;5.73;;;4.13;;
33740;SDS011;20065;48.380;10.892;2023-05-02T14:59:21;5.70;;;3.87;;
33740;SDS011;20065;48.380;10.892;2023-05-02T15:02:07;7.40;;;3.60;;
33740;SDS011;20065;48.380;10.892;2023-05-02T15:04:53;5.03;;;3.70;;
33740;SDS011;20065;48.380;10.892;2023-05-02T15:07:40;5.40;;;3.87;;
33740;SDS011;20065;48.380;10.892;2023-05-02T15:10:26;6.23;;;3.60;;
33740;SDS011;20065;48.380;10.892;2023-05-02T15:13:12;5.50;;;3.67;;
33740;SDS011;20065;48.380;10.892;2023-05-02T15:15:58;6.00;;;4.50;;
33740;SDS011;20065;48.380;10.892;2023-05-02T15:18:45;5.93;;;4.90;;
33740;SDS011;20065;48.380;10.892;2023-05-02T15:21:31;5.70;;;4.07;;
33740;SDS011;20065;48.380;10.892;2023-05-02T15:24:18;6.03;;;4.40;;
33740;SDS011;20065;48.380;10.892;2023-05-02T15:27:04;6.73;;;4.37;;
33740;SDS011;20065;48.380;10.892;2023-05-02T15:29:50;7.00;;;5.20;;
33740;SDS011;20065;48.380;10.892;2023-05-02T15:32:36;6.27;;;4.60;;
33740;SDS011;20065;48.380;10.892;2023-05-02T15:35:23;7.67;;;5.17;;
33740;SDS011;20065;48.380;10.892;2023-05-02T15:38:09;6.17;;;4.40;;
33740;SDS011;20065;48.380;10.892;2023-05-02T15:40:56;6.97;;;4.83;;
33740;SDS011;20065;48.380;10.892;2023-05-02T15:43:43;6.53;;;5.10;;
33740;SDS011;20065;48.380;10.892;2023-05-02T15:46:29;5.73;;;4.97;;
33740;SDS011;20065;48.380;10.892;2023-05-02T15:49:15;6.37;;;4.53;;
33740;SDS011;20065;48.380;10.892;2023-05-02T15:52:01;5.97;;;4.77;;
33740;SDS011;20065;48.380;10.892;2023-05-02T15:54:47;8.60;;;5.67;;
33740;SDS011;20065;48.380;10.892;2023-05-02T15:57:36;5.80;;;4.77;;
33740;SDS011;20065;48.380;10.892;2023-05-02T16:00:22;6.83;;;4.30;;
33740;SDS011;20065;48.380;10.892;2023-05-02T16:03:09;7.03;;;4.87;;
33740;SDS011;20065;48.380;10.892;2023-05-02T16:06:17;6.20;;;4.33;;
33740;SDS011;20065;48.380;10.892;2023-05-02T16:09:03;8.30;;;5.00;;
33740;SDS011;20065;48.380;10.892;2023-05-02T16:11:52;7.23;;;4.97;;
33740;SDS011;20065;48.380;10.892;2023-05-02T16:14:38;7.10;;;4.20;;
33740;SDS011;20065;48.380;10.892;2023-05-02T16:17:24;9.90;;;4.80;;
33740;SDS011;20065;48.380;10.892;2023-05-02T16:20:11;6.73;;;4.87;;
33740;SDS011;20065;48.380;10.892;2023-05-02T16:22:57;8.53;;;4.13;;
33740;SDS011;20065;48.380;10.892;2023-05-02T16:25:44;8.00;;;5.50;;
33740;SDS011;20065;48.380;10.892;2023-05-02T16:28:30;5.60;;;4.30;;
33740;SDS011;20065;48.380;10.892;2023-05-02T16:31:16;5.77;;;4.40;;
33740;SDS011;20065;48.380;10.892;2023-05-02T16:34:02;6.60;;;5.20;;
33740;SDS011;20065;48.380;10.892;2023-05-02T16:36:50;7.10;;;4.80;;
33740;SDS011;20065;48.380;10.892;2023-05-02T16:39:39;6.10;;;4.50;;
33740;SDS011;20065;48.380;10.892;2023-05-02T16:42:25;5.80;;;4.20;;
33740;SDS011;20065;48.380;10.892;2023-05-02T16:45:11;8.80;;;4.37;;
33740;SDS011;20065;48.380;10.892;2023-05-02T16:48:01;6.33;;;4.03;;
33740;SDS011;20065;48.380;10.892;2023-05-02T16:50:49;5.30;;;4.20;;
33740;SDS011;20065;48.380;10.892;2023-05-02T16:53:35;5.90;;;3.77;;
33740;SDS011;20065;48.380;10.892;2023-05-02T16:56:21;5.70;;;3.80;;
33740;SDS011;20065;48.380;10.892;2023-05-02T16:59:07;7.33;;;4.77;;
33740;SDS011;20065;48.380;10.892;2023-05-02T17:01:53;5.30;;;3.83;;
33740;SDS011;20065;48.380;10.892;2023-05-02T17:04:41;6.90;;;3.80;;
33740;SDS011;20065;48.380;10.892;2023-05-02T17:07:27;5.00;;;3.83;;
33740;SDS011;20065;48.380;10.892;2023-05-02T17:10:13;7.27;;;3.90;;
33740;SDS011;20065;48.380;10.892;2023-05-02T17:13:00;8.03;;;4.50;;
33740;SDS011;20065;48.380;10.892;2023-05-02T17:15:49;6.67;;;4.07;;
33740;SDS011;20065;48.380;10.892;2023-05-02T17:18:37;6.93;;;4.50;;